createdAt,value
2022-10-17T00:05:16.876Z,14.17
2022-10-17T00:10:40.032Z,14.21
2022-10-17T00:16:02.039Z,14.14
2022-10-17T00:21:24.656Z,14.15
2022-10-17T00:26:46.517Z,14.09
2022-10-17T00:32:08.436Z,14.08
2022-10-17T00:37:31.543Z,14.05
2022-10-17T00:42:53.430Z,14.10
2022-10-17T00:48:20.011Z,14.09
2022-10-17T00:53:44.633Z,14.06
2022-10-17T00:59:09.555Z,13.98
2022-10-17T01:04:32.042Z,13.82
2022-10-17T01:09:54.113Z,13.81
2022-10-17T01:15:23.910Z,13.79
2022-10-17T01:20:54.424Z,13.77
2022-10-17T01:26:53.506Z,13.78
2022-10-17T01:32:17.753Z,13.74
2022-10-17T01:37:56.126Z,13.51
2022-10-17T01:43:24.238Z,13.47
2022-10-17T01:48:46.553Z,13.50
2022-10-17T01:54:14.034Z,13.48
2022-10-17T01:59:40.837Z,13.42
2022-10-17T02:05:04.327Z,13.32
2022-10-17T02:10:46.435Z,13.17
2022-10-17T02:16:47.009Z,13.17
2022-10-17T02:22:17.581Z,13.21
2022-10-17T02:27:50.693Z,13.20
2022-10-17T02:33:35.741Z,13.22
2022-10-17T02:38:59.298Z,13.12
2022-10-17T02:44:22.806Z,13.10
2022-10-17T02:49:50.730Z,13.05
2022-10-17T02:55:19.536Z,13.02
2022-10-17T03:00:42.558Z,12.95
2022-10-17T03:06:04.711Z,12.96
2022-10-17T03:11:26.563Z,12.91
2022-10-17T03:16:48.417Z,12.99
2022-10-17T03:22:10.325Z,12.96
2022-10-17T03:27:32.527Z,12.95
2022-10-17T03:32:54.677Z,12.90
2022-10-17T03:38:16.537Z,12.97
2022-10-17T03:43:38.779Z,12.95
2022-10-17T03:49:00.668Z,12.88
2022-10-17T03:54:22.563Z,12.90
2022-10-17T03:59:44.385Z,12.94
2022-10-17T04:05:06.884Z,13.00
2022-10-17T04:10:28.741Z,13.11
2022-10-17T04:15:55.883Z,13.18
2022-10-17T04:21:17.892Z,13.08
2022-10-17T04:26:39.982Z,13.07
2022-10-17T04:32:01.837Z,13.08
2022-10-17T04:37:23.740Z,13.03
2022-10-17T04:42:45.652Z,12.94
2022-10-17T04:48:07.597Z,12.84
2022-10-17T04:53:32.040Z,12.85
2022-10-17T04:58:53.890Z,12.90
2022-10-17T05:04:15.802Z,12.99
2022-10-17T05:09:37.759Z,13.03
2022-10-17T05:14:59.619Z,13.28
2022-10-17T05:20:21.544Z,13.46
2022-10-17T05:25:43.495Z,13.62
2022-10-17T05:31:06.621Z,13.49
2022-10-17T05:36:28.899Z,13.64
2022-10-17T05:41:50.722Z,13.96
2022-10-17T05:47:12.581Z,14.21
2022-10-17T05:52:34.676Z,14.66
2022-10-17T05:57:56.575Z,14.92
2022-10-17T06:03:18.583Z,15.03
2022-10-17T06:08:40.494Z,14.83
2022-10-17T06:14:02.859Z,15.07
2022-10-17T06:19:25.269Z,19.03
2022-10-17T06:24:47.129Z,20.03
2022-10-17T06:30:09.621Z,19.24
2022-10-17T06:35:31.772Z,19.10
2022-10-17T06:40:53.662Z,19.67
2022-10-17T06:46:18.014Z,21.82
2022-10-17T06:51:40.058Z,23.00
2022-10-17T06:57:01.977Z,23.74
2022-10-17T07:02:23.863Z,24.69
2022-10-17T07:07:47.482Z,25.38
2022-10-17T07:13:11.618Z,25.85
2022-10-17T07:18:34.252Z,27.65
2022-10-17T07:23:56.131Z,27.57
2022-10-17T07:29:18.203Z,27.23
2022-10-17T07:34:40.084Z,27.13
2022-10-17T07:40:01.979Z,26.76
2022-10-17T07:45:23.938Z,25.66
2022-10-17T07:50:45.971Z,25.58
2022-10-17T07:56:09.196Z,27.00
2022-10-17T08:01:31.198Z,28.59
2022-10-17T08:06:56.418Z,26.90
2022-10-17T08:12:22.416Z,23.32
2022-10-17T08:17:44.257Z,21.72
2022-10-17T08:23:06.187Z,21.27
2022-10-17T08:28:28.522Z,21.43
2022-10-17T08:33:50.811Z,22.25
2022-10-17T08:39:12.687Z,22.16
2022-10-17T08:44:46.753Z,23.67
2022-10-17T08:50:34.434Z,27.16
2022-10-17T08:55:56.823Z,27.83
2022-10-17T09:01:36.945Z,28.44
2022-10-17T09:07:17.931Z,29.57
2022-10-17T09:13:29.485Z,29.86
2022-10-17T09:19:02.707Z,30.18
2022-10-17T09:24:51.357Z,30.14
2022-10-17T09:30:47.496Z,29.89
2022-10-17T09:36:27.359Z,28.84
2022-10-17T09:41:55.362Z,28.34
2022-10-17T09:47:29.426Z,26.60
2022-10-17T09:52:53.338Z,27.92
2022-10-17T09:58:15.714Z,27.77
2022-10-17T10:03:37.555Z,28.25
2022-10-17T10:08:59.478Z,27.34
2022-10-17T10:14:37.956Z,25.67
2022-10-17T10:20:00.342Z,24.02
2022-10-17T10:25:22.268Z,23.25
2022-10-17T10:30:49.903Z,23.03
2022-10-17T10:36:11.854Z,22.63
2022-10-17T10:41:47.550Z,22.62
2022-10-17T10:47:23.356Z,22.71
2022-10-17T10:52:53.120Z,22.32
2022-10-17T10:58:23.060Z,22.24
2022-10-17T11:04:00.407Z,22.73
2022-10-17T11:09:41.138Z,22.46
2022-10-17T11:15:18.189Z,23.13
2022-10-17T11:21:03.144Z,23.21
2022-10-17T11:26:28.849Z,22.96
2022-10-17T11:31:54.565Z,22.47
2022-10-17T11:37:22.984Z,22.68
2022-10-17T11:42:59.310Z,22.63
2022-10-17T11:48:30.734Z,22.57
2022-10-17T11:54:32.130Z,22.28
2022-10-17T11:59:58.830Z,22.50
2022-10-17T12:05:49.059Z,22.38
2022-10-17T12:11:51.288Z,22.28
2022-10-17T12:17:37.079Z,22.05
2022-10-17T12:23:04.891Z,22.13
2022-10-17T12:28:33.140Z,22.06
2022-10-17T12:34:00.542Z,22.25
2022-10-17T12:39:25.354Z,22.12
2022-10-17T12:44:50.409Z,22.33
2022-10-17T12:50:50.836Z,22.14
2022-10-17T12:56:44.441Z,22.12
2022-10-17T13:02:17.569Z,22.35
2022-10-17T13:07:42.714Z,22.38
2022-10-17T13:13:50.363Z,22.17
2022-10-17T13:19:17.551Z,22.22
2022-10-17T13:24:40.996Z,22.05
2022-10-17T13:30:27.931Z,21.87
2022-10-17T13:36:00.364Z,21.81
2022-10-17T13:41:36.826Z,21.97
2022-10-17T13:46:59.380Z,21.94
2022-10-17T13:52:25.115Z,21.97
2022-10-17T13:57:46.979Z,21.95
2022-10-17T14:03:09.359Z,21.85
2022-10-17T14:08:33.598Z,21.86
2022-10-17T14:13:56.442Z,21.83
2022-10-17T14:19:37.359Z,21.73
2022-10-17T14:25:02.481Z,21.77
2022-10-17T14:30:51.757Z,21.68
2022-10-17T14:36:09.789Z,21.66
2022-10-17T14:41:44.015Z,21.60
2022-10-17T14:47:38.213Z,21.52
2022-10-17T14:53:06.496Z,21.50
2022-10-17T14:58:30.663Z,21.37
2022-10-17T15:03:52.502Z,21.36
2022-10-17T15:09:14.704Z,21.29
2022-10-17T15:14:36.561Z,21.16
2022-10-17T15:19:58.713Z,21.06
2022-10-17T15:25:21.231Z,20.98
2022-10-17T15:30:43.056Z,20.88
2022-10-17T15:36:05.382Z,20.79
2022-10-17T15:41:30.279Z,20.65
2022-10-17T15:46:52.148Z,20.56
2022-10-17T15:52:14.019Z,20.46
2022-10-17T15:57:41.912Z,20.34
2022-10-17T16:03:03.977Z,20.22
2022-10-17T16:08:26.199Z,20.16
2022-10-17T16:13:52.530Z,20.05
2022-10-17T16:19:14.444Z,19.93
2022-10-17T16:24:36.337Z,19.83
2022-10-17T16:29:58.298Z,19.71
2022-10-17T16:35:24.898Z,19.57
2022-10-17T16:40:46.731Z,19.46
2022-10-17T16:46:08.595Z,19.30
2022-10-17T16:51:30.647Z,19.13
2022-10-17T16:56:52.536Z,19.09
2022-10-17T17:02:17.551Z,19.01
2022-10-17T17:07:42.301Z,18.93
2022-10-17T17:13:04.107Z,18.87
2022-10-17T17:18:26.044Z,18.81
2022-10-17T17:23:47.927Z,18.65
2022-10-17T17:29:10.467Z,18.65
2022-10-17T17:34:36.351Z,18.54
2022-10-17T17:39:58.177Z,18.45
2022-10-17T17:45:20.083Z,18.25
2022-10-17T17:50:42.983Z,18.17
2022-10-17T17:56:19.435Z,18.09
2022-10-17T18:01:41.554Z,17.59
2022-10-17T18:07:03.536Z,17.83
2022-10-17T18:12:25.438Z,17.83
2022-10-17T18:17:47.372Z,17.73
2022-10-17T18:23:10.069Z,17.72
2022-10-17T18:28:36.872Z,17.63
2022-10-17T18:33:59.466Z,17.56
2022-10-17T18:39:21.520Z,17.49
2022-10-17T18:44:43.496Z,17.47
2022-10-17T18:50:05.712Z,17.37
2022-10-17T18:55:27.631Z,17.23
2022-10-17T19:00:50.546Z,17.26
2022-10-17T19:06:14.988Z,17.14
2022-10-17T19:11:38.142Z,16.98
2022-10-17T19:17:00.034Z,16.89
2022-10-17T19:22:22.048Z,16.75
2022-10-17T19:27:43.928Z,16.68
2022-10-17T19:33:05.788Z,16.54
2022-10-17T19:38:27.763Z,16.49
2022-10-17T19:43:49.648Z,16.41
2022-10-17T19:49:11.703Z,16.35
2022-10-17T19:54:33.570Z,16.20
2022-10-17T19:59:56.147Z,16.12
2022-10-17T20:05:19.066Z,16.07
2022-10-17T20:10:41.991Z,16.00
2022-10-17T20:16:05.647Z,15.80
2022-10-17T20:21:28.965Z,15.84
2022-10-17T20:26:50.880Z,15.76
2022-10-17T20:32:12.815Z,15.72
2022-10-17T20:37:41.457Z,15.65
2022-10-17T20:43:06.377Z,15.59
2022-10-17T20:48:28.400Z,15.52
2022-10-17T20:53:50.317Z,15.41
2022-10-17T20:59:14.487Z,15.40
2022-10-17T21:04:51.738Z,15.34
2022-10-17T21:10:34.560Z,15.22
2022-10-17T21:15:55.550Z,15.17
2022-10-17T21:21:23.303Z,15.19
2022-10-17T21:26:46.553Z,15.11
2022-10-17T21:32:19.493Z,15.07
2022-10-17T21:37:51.750Z,14.96
2022-10-17T21:43:14.321Z,14.83
2022-10-17T21:48:36.407Z,14.77
2022-10-17T21:53:58.340Z,14.64
2022-10-17T21:59:20.205Z,14.64
2022-10-17T22:04:42.353Z,14.50
2022-10-17T22:10:04.633Z,14.46
2022-10-17T22:15:26.529Z,14.51
2022-10-17T22:20:48.368Z,14.44
2022-10-17T22:26:11.132Z,14.35
2022-10-17T22:31:33.608Z,14.34
2022-10-17T22:36:55.451Z,14.29
2022-10-17T22:42:17.450Z,14.15
2022-10-17T22:47:39.375Z,14.11
2022-10-17T22:53:01.333Z,14.07
2022-10-17T22:58:23.806Z,13.99
2022-10-17T23:03:45.970Z,13.96
2022-10-17T23:09:07.879Z,13.92
2022-10-17T23:14:29.720Z,13.95
2022-10-17T23:19:54.164Z,13.80
2022-10-17T23:25:18.819Z,13.80
2022-10-17T23:30:40.858Z,13.80
2022-10-17T23:36:06.035Z,13.76
2022-10-17T23:41:27.990Z,13.72
2022-10-17T23:46:49.904Z,13.73
2022-10-17T23:52:11.842Z,13.70
2022-10-17T23:57:34.269Z,13.67
